createdAt,value
2018-11-23T00:04:48.768Z,1013.58
2018-11-23T00:09:44.253Z,1013.62
2018-11-23T00:14:39.736Z,1013.70
2018-11-23T00:19:36.336Z,1013.85
2018-11-23T00:24:31.461Z,1013.79
2018-11-23T00:29:26.897Z,1013.80
2018-11-23T00:34:23.587Z,1013.92
2018-11-23T00:39:18.918Z,1013.94
2018-11-23T00:44:14.593Z,1013.95
2018-11-23T00:49:10.149Z,1013.96
2018-11-23T00:54:07.119Z,1013.94
2018-11-23T00:59:03.955Z,1013.95
2018-11-23T01:03:59.431Z,1013.86
2018-11-23T01:08:56.168Z,1013.97
2018-11-23T01:13:52.841Z,1013.89
2018-11-23T01:18:48.211Z,1013.92
2018-11-23T01:23:43.949Z,1013.83
2018-11-23T01:28:39.601Z,1013.90
2018-11-23T01:33:35.948Z,1013.99
2018-11-23T01:38:31.650Z,1013.91
2018-11-23T01:43:27.223Z,1013.96
2018-11-23T01:48:23.931Z,1013.96
2018-11-23T01:53:19.336Z,1013.83
2018-11-23T01:58:15.712Z,1013.85
2018-11-23T02:03:11.758Z,1013.92
2018-11-23T02:08:07.254Z,1013.85
2018-11-23T02:13:04.052Z,1013.76
2018-11-23T02:17:59.191Z,1013.72
2018-11-23T02:22:56.372Z,1013.69
2018-11-23T02:27:51.321Z,1013.74
2018-11-23T02:32:47.754Z,1013.63
2018-11-23T02:37:44.044Z,1013.65
2018-11-23T02:42:39.437Z,1013.70
2018-11-23T02:47:35.304Z,1013.62
2018-11-23T02:52:31.302Z,1013.56
2018-11-23T02:57:26.764Z,1013.57
2018-11-23T03:02:22.044Z,1013.53
2018-11-23T03:07:17.521Z,1013.49
2018-11-23T03:12:14.006Z,1013.50
2018-11-23T03:17:09.757Z,1013.37
2018-11-23T03:22:05.399Z,1013.37
2018-11-23T03:27:00.670Z,1013.36
2018-11-23T03:31:56.296Z,1013.37
2018-11-23T03:36:51.717Z,1013.31
2018-11-23T03:41:47.252Z,1013.39
2018-11-23T03:46:43.887Z,1013.42
2018-11-23T03:51:40.409Z,1013.49
2018-11-23T03:56:36.379Z,1013.45
2018-11-23T04:01:31.586Z,1013.34
2018-11-23T04:06:26.972Z,1013.41
2018-11-23T04:11:23.797Z,1013.50
2018-11-23T04:16:19.248Z,1013.43
2018-11-23T04:21:15.750Z,1013.39
2018-11-23T04:26:10.861Z,1013.40
2018-11-23T04:31:08.198Z,1013.46
2018-11-23T04:36:03.371Z,1013.43
2018-11-23T04:40:59.069Z,1013.39
2018-11-23T04:45:54.927Z,1013.36
2018-11-23T04:50:50.682Z,1013.40
2018-11-23T04:55:46.012Z,1013.37
2018-11-23T05:00:41.597Z,1013.33
2018-11-23T05:05:37.204Z,1013.35
2018-11-23T05:10:33.966Z,1013.25
2018-11-23T05:15:29.639Z,1013.27
2018-11-23T05:20:26.225Z,1013.26
2018-11-23T05:25:26.402Z,1013.28
2018-11-23T05:30:20.843Z,1013.25
2018-11-23T05:35:16.479Z,1013.12
2018-11-23T05:40:12.025Z,1013.10
2018-11-23T05:45:07.663Z,1013.13
2018-11-23T05:50:03.288Z,1013.08
2018-11-23T05:54:58.879Z,1013.09
2018-11-23T05:59:54.284Z,1013.11
2018-11-23T06:04:49.893Z,1013.06
2018-11-23T06:09:46.502Z,1013.12
2018-11-23T06:14:41.647Z,1013.08
2018-11-23T06:19:38.287Z,1013.09
2018-11-23T06:24:34.084Z,1013.11
2018-11-23T06:29:29.866Z,1012.99
2018-11-23T06:34:26.188Z,1013.05
2018-11-23T06:39:21.507Z,1013.08
2018-11-23T06:44:18.144Z,1013.12
2018-11-23T06:49:13.471Z,1013.06
2018-11-23T06:54:14.350Z,1013.22
2018-11-23T06:59:08.006Z,1013.19
2018-11-23T07:04:04.209Z,1013.17
2018-11-23T07:09:01.023Z,1013.15
2018-11-23T07:14:03.753Z,1013.17
2018-11-23T07:18:56.146Z,1013.25
2018-11-23T07:23:51.980Z,1013.15
2018-11-23T07:28:47.488Z,1013.19
2018-11-23T07:33:43.024Z,1013.18
2018-11-23T07:38:39.580Z,1013.20
2018-11-23T07:43:35.579Z,1013.18
2018-11-23T07:48:31.301Z,1013.27
2018-11-23T07:53:26.720Z,1013.27
2018-11-23T07:58:22.496Z,1013.25
2018-11-23T08:03:18.586Z,1013.22
2018-11-23T08:08:14.220Z,1013.26
2018-11-23T08:13:14.830Z,1013.28
2018-11-23T08:18:09.397Z,1013.21
2018-11-23T08:23:05.254Z,1013.16
2018-11-23T08:28:00.934Z,1013.21
2018-11-23T08:32:57.353Z,1013.16
2018-11-23T08:37:55.042Z,1013.04
2018-11-23T08:42:50.190Z,1012.96
2018-11-23T08:47:45.818Z,1013.19
2018-11-23T08:52:41.378Z,1013.20
2018-11-23T08:57:37.088Z,1013.26
2018-11-23T09:02:32.884Z,1013.11
2018-11-23T09:07:28.591Z,1013.26
2018-11-23T09:12:24.454Z,1013.24
2018-11-23T09:17:20.064Z,1013.19
2018-11-23T09:22:23.165Z,1013.12
2018-11-23T09:27:16.335Z,1012.99
2018-11-23T09:32:12.052Z,1013.01
2018-11-23T09:37:08.433Z,1013.12
2018-11-23T09:42:05.147Z,1013.17
2018-11-23T09:47:00.903Z,1013.15
2018-11-23T09:51:57.064Z,1013.12
2018-11-23T09:56:52.799Z,1013.17
2018-11-23T10:01:48.518Z,1013.11
2018-11-23T10:06:44.428Z,1013.08
2018-11-23T10:11:40.075Z,1013.01
2018-11-23T10:16:37.156Z,1012.98
2018-11-23T10:21:32.944Z,1012.93
2018-11-23T10:26:29.672Z,1012.95
2018-11-23T10:31:25.109Z,1012.78
2018-11-23T10:36:20.982Z,1012.74
2018-11-23T10:41:17.434Z,1012.71
2018-11-23T10:46:13.405Z,1012.64
2018-11-23T10:51:09.299Z,1012.42
2018-11-23T10:56:05.576Z,1012.46
2018-11-23T11:01:02.255Z,1012.35
2018-11-23T11:05:59.423Z,1012.42
2018-11-23T11:10:55.057Z,1012.49
2018-11-23T11:15:50.982Z,1012.34
2018-11-23T11:20:47.005Z,1012.16
2018-11-23T11:25:44.121Z,1012.11
2018-11-23T11:30:40.746Z,1012.17
2018-11-23T11:35:36.161Z,1012.15
2018-11-23T11:40:32.335Z,1012.18
2018-11-23T11:45:28.056Z,1012.20
2018-11-23T11:50:23.311Z,1011.96
2018-11-23T11:55:19.121Z,1011.97
2018-11-23T12:00:14.796Z,1011.85
2018-11-23T12:05:11.585Z,1011.75
2018-11-23T12:10:07.025Z,1011.74
2018-11-23T12:15:02.903Z,1011.76
2018-11-23T12:19:58.302Z,1011.76
2018-11-23T12:24:53.997Z,1011.67
2018-11-23T12:29:49.407Z,1011.67
2018-11-23T12:34:45.364Z,1011.55
2018-11-23T12:39:41.037Z,1011.46
2018-11-23T12:44:37.959Z,1011.37
2018-11-23T12:49:34.392Z,1011.34
2018-11-23T12:54:29.873Z,1011.28
2018-11-23T12:59:26.621Z,1011.27
2018-11-23T13:04:22.114Z,1011.29
2018-11-23T13:09:18.063Z,1011.16
2018-11-23T13:14:13.618Z,1011.22
2018-11-23T13:19:09.396Z,1011.13
2018-11-23T13:24:05.891Z,1011.05
2018-11-23T13:29:10.888Z,1011.06
2018-11-23T13:34:00.753Z,1010.99
2018-11-23T13:38:56.343Z,1010.88
2018-11-23T13:43:52.351Z,1010.86
2018-11-23T13:48:48.782Z,1010.91
2018-11-23T13:53:44.323Z,1010.82
2018-11-23T13:58:39.930Z,1010.86
2018-11-23T14:03:35.563Z,1010.81
2018-11-23T14:08:31.375Z,1010.69
2018-11-23T14:13:27.164Z,1010.74
2018-11-23T14:18:24.422Z,1010.72
2018-11-23T14:23:21.157Z,1010.65
2018-11-23T14:28:17.556Z,1010.75
2018-11-23T14:33:14.144Z,1010.68
2018-11-23T14:38:09.394Z,1010.57
2018-11-23T14:43:05.051Z,1010.48
2018-11-23T14:48:00.685Z,1010.44
2018-11-23T14:52:56.300Z,1010.45
2018-11-23T14:57:52.193Z,1010.52
2018-11-23T15:02:47.644Z,1010.49
2018-11-23T15:07:42.898Z,1010.56
2018-11-23T15:12:38.790Z,1010.53
2018-11-23T15:17:34.371Z,1010.37
2018-11-23T15:22:30.230Z,1010.33
2018-11-23T15:27:25.971Z,1010.34
2018-11-23T15:32:21.527Z,1010.37
2018-11-23T15:37:17.174Z,1010.26
2018-11-23T15:42:12.845Z,1010.28
2018-11-23T15:47:08.730Z,1010.32
2018-11-23T15:52:05.584Z,1010.29
2018-11-23T15:57:00.839Z,1010.36
2018-11-23T16:01:57.475Z,1010.38
2018-11-23T16:06:52.884Z,1010.41
2018-11-23T16:11:48.519Z,1010.31
2018-11-23T16:16:44.154Z,1010.43
2018-11-23T16:21:39.988Z,1010.38
2018-11-23T16:26:35.545Z,1010.43
2018-11-23T16:31:31.064Z,1010.45
2018-11-23T16:36:26.370Z,1010.38
2018-11-23T16:41:22.052Z,1010.27
2018-11-23T16:46:18.394Z,1010.36
2018-11-23T16:51:15.077Z,1010.34
2018-11-23T16:56:10.138Z,1010.29
2018-11-23T17:01:05.806Z,1010.30
2018-11-23T17:06:02.469Z,1010.24
2018-11-23T17:10:58.596Z,1010.22
2018-11-23T17:15:54.088Z,1010.15
2018-11-23T17:20:49.569Z,1010.07
2018-11-23T17:25:45.254Z,1010.07
2018-11-23T17:30:40.543Z,1010.04
2018-11-23T17:35:36.015Z,1010.05
2018-11-23T17:40:31.613Z,1010.13
2018-11-23T17:45:27.228Z,1010.08
2018-11-23T17:50:23.887Z,1010.12
2018-11-23T17:55:20.236Z,1010.08
2018-11-23T18:00:16.796Z,1009.97
2018-11-23T18:05:13.161Z,1010.04
2018-11-23T18:10:10.129Z,1009.87
2018-11-23T18:15:05.423Z,1009.92
2018-11-23T18:20:01.129Z,1009.82
2018-11-23T18:24:56.634Z,1009.76
2018-11-23T18:29:52.283Z,1009.63
2018-11-23T18:34:47.804Z,1009.72
2018-11-23T18:39:44.391Z,1009.63
2018-11-23T18:44:40.599Z,1009.51
2018-11-23T18:49:35.656Z,1009.59
2018-11-23T18:54:31.882Z,1009.48
2018-11-23T18:59:28.311Z,1009.43
2018-11-23T19:04:24.192Z,1009.43
2018-11-23T19:09:19.968Z,1009.37
2018-11-23T19:14:16.229Z,1009.27
2018-11-23T19:19:12.004Z,1009.31
2018-11-23T19:24:07.430Z,1009.23
2018-11-23T19:29:04.087Z,1009.13
2018-11-23T19:33:59.792Z,1009.10
2018-11-23T19:38:56.078Z,1009.01
2018-11-23T19:43:52.622Z,1008.89
2018-11-23T19:48:49.324Z,1008.86
2018-11-23T19:53:44.181Z,1008.70
2018-11-23T19:58:41.391Z,1008.66
2018-11-23T20:03:37.944Z,1008.66
2018-11-23T20:08:33.239Z,1008.46
2018-11-23T20:13:28.915Z,1008.44
2018-11-23T20:18:24.483Z,1008.38
2018-11-23T20:23:20.045Z,1008.27
2018-11-23T20:28:15.714Z,1008.38
2018-11-23T20:33:12.269Z,1008.40
2018-11-23T20:38:07.495Z,1008.43
2018-11-23T20:43:03.083Z,1008.32
2018-11-23T20:47:58.627Z,1008.34
2018-11-23T20:52:54.253Z,1008.43
2018-11-23T20:57:49.729Z,1008.35
2018-11-23T21:02:45.349Z,1008.29
2018-11-23T21:07:41.293Z,1008.28
2018-11-23T21:12:37.194Z,1008.21
2018-11-23T21:17:32.422Z,1008.10
2018-11-23T21:22:29.138Z,1008.05
2018-11-23T21:27:24.578Z,1007.94
2018-11-23T21:32:19.978Z,1007.92
2018-11-23T21:37:15.469Z,1007.88
2018-11-23T21:42:11.143Z,1007.85
2018-11-23T21:47:06.801Z,1007.83
2018-11-23T21:52:03.093Z,1007.80
2018-11-23T21:56:58.747Z,1007.81
2018-11-23T22:01:55.383Z,1007.88
2018-11-23T22:06:50.475Z,1007.73
2018-11-23T22:11:52.366Z,1007.65
2018-11-23T22:16:45.218Z,1007.68
2018-11-23T22:21:41.487Z,1007.60
2018-11-23T22:26:37.239Z,1007.55
2018-11-23T22:31:33.878Z,1007.61
2018-11-23T22:36:29.090Z,1007.62
2018-11-23T22:41:24.571Z,1007.54
2018-11-23T22:46:19.945Z,1007.53
2018-11-23T22:51:16.289Z,1007.52
2018-11-23T22:56:11.898Z,1007.49
2018-11-23T23:01:07.473Z,1007.43
2018-11-23T23:06:03.475Z,1007.26
2018-11-23T23:10:59.137Z,1007.20
2018-11-23T23:15:55.795Z,1007.11
2018-11-23T23:20:51.283Z,1007.12
2018-11-23T23:25:46.946Z,1007.02
2018-11-23T23:30:43.447Z,1007.00
2018-11-23T23:35:38.813Z,1006.98
2018-11-23T23:40:35.436Z,1006.84
2018-11-23T23:45:30.686Z,1006.85
2018-11-23T23:50:26.334Z,1006.84
2018-11-23T23:55:22.982Z,1006.80
